createdAt,value
2023-03-04T00:00:30.933Z,47.77
2023-03-04T00:02:57.851Z,45.93
2023-03-04T00:05:24.870Z,46.37
2023-03-04T00:07:51.816Z,43.70
2023-03-04T00:10:18.827Z,50.20
2023-03-04T00:12:45.806Z,51.90
2023-03-04T00:15:12.698Z,46.63
2023-03-04T00:17:39.613Z,47.47
2023-03-04T00:20:07.630Z,48.23
2023-03-04T00:22:34.473Z,46.07
2023-03-04T00:25:01.533Z,44.93
2023-03-04T00:27:28.584Z,50.00
2023-03-04T00:29:56.610Z,43.60
2023-03-04T00:32:23.614Z,47.57
2023-03-04T00:34:50.565Z,52.47
2023-03-04T00:37:17.550Z,52.60
2023-03-04T00:39:44.570Z,49.00
2023-03-04T00:42:11.516Z,48.67
2023-03-04T00:44:38.420Z,47.53
2023-03-04T00:47:05.358Z,49.23
2023-03-04T00:49:32.414Z,48.43
2023-03-04T00:51:59.335Z,46.03
2023-03-04T00:54:26.277Z,56.23
2023-03-04T00:56:53.184Z,45.90
2023-03-04T00:59:20.153Z,48.50
2023-03-04T01:01:47.075Z,54.13
2023-03-04T01:04:13.971Z,50.20
2023-03-04T01:06:41.075Z,51.70
2023-03-04T01:09:08.485Z,45.93
2023-03-04T01:11:35.344Z,51.43
2023-03-04T01:14:03.452Z,50.37
2023-03-04T01:16:30.419Z,45.40
2023-03-04T01:18:57.422Z,54.17
2023-03-04T01:21:24.341Z,52.37
2023-03-04T01:23:51.320Z,52.40
2023-03-04T01:26:18.193Z,52.67
2023-03-04T01:28:45.087Z,54.07
2023-03-04T01:31:12.092Z,54.97
2023-03-04T01:33:39.112Z,58.90
2023-03-04T01:36:06.420Z,51.87
2023-03-04T01:38:33.319Z,52.77
2023-03-04T01:41:00.394Z,48.60
2023-03-04T01:43:30.521Z,47.37
2023-03-04T01:45:58.814Z,50.27
2023-03-04T01:48:36.539Z,51.97
2023-03-04T01:51:12.443Z,52.77
2023-03-04T01:53:39.530Z,50.73
2023-03-04T01:56:16.957Z,46.50
2023-03-04T01:58:43.989Z,50.77
2023-03-04T02:01:14.639Z,45.07
2023-03-04T02:03:41.635Z,59.60
2023-03-04T02:06:08.714Z,50.50
2023-03-04T02:08:35.985Z,51.03
2023-03-04T02:11:02.929Z,47.93
2023-03-04T02:13:29.893Z,55.67
2023-03-04T02:15:56.808Z,49.27
2023-03-04T02:18:24.806Z,48.53
2023-03-04T02:21:07.645Z,47.60
2023-03-04T02:24:17.744Z,46.27
2023-03-04T02:26:46.867Z,53.50
2023-03-04T02:29:16.901Z,54.50
2023-03-04T02:31:47.777Z,53.80
2023-03-04T02:34:24.888Z,54.77
2023-03-04T02:36:54.007Z,55.33
2023-03-04T02:39:36.349Z,52.03
2023-03-04T02:42:04.433Z,50.57
2023-03-04T02:44:35.231Z,51.97
2023-03-04T02:47:04.373Z,49.60
2023-03-04T02:49:33.700Z,53.73
2023-03-04T02:52:09.095Z,51.53
2023-03-04T02:54:38.051Z,56.20
2023-03-04T02:57:09.137Z,50.83
2023-03-04T02:59:38.474Z,53.63
2023-03-04T03:02:06.726Z,53.33
2023-03-04T03:04:35.116Z,54.33
2023-03-04T03:07:02.148Z,52.23
2023-03-04T03:09:29.289Z,54.93
2023-03-04T03:11:56.253Z,53.57
2023-03-04T03:14:23.181Z,48.10
2023-03-04T03:16:50.117Z,52.83
2023-03-04T03:19:17.157Z,44.87
2023-03-04T03:21:44.026Z,51.93
2023-03-04T03:24:10.970Z,53.60
2023-03-04T03:26:39.907Z,55.80
2023-03-04T03:29:06.802Z,46.30
2023-03-04T03:31:33.722Z,57.23
2023-03-04T03:34:00.704Z,55.40
2023-03-04T03:36:27.746Z,54.27
2023-03-04T03:38:54.826Z,61.87
2023-03-04T03:41:21.709Z,54.17
2023-03-04T03:43:48.712Z,49.13
2023-03-04T03:46:15.628Z,49.97
2023-03-04T03:48:42.505Z,54.27
2023-03-04T03:51:09.441Z,52.17
2023-03-04T03:53:36.366Z,42.80
2023-03-04T03:56:03.513Z,41.80
2023-03-04T03:58:30.579Z,48.73
2023-03-04T04:00:58.515Z,47.33
2023-03-04T04:03:26.057Z,48.57
2023-03-04T04:05:53.181Z,45.80
2023-03-04T04:08:20.174Z,47.90
2023-03-04T04:10:47.086Z,55.50
2023-03-04T04:13:14.181Z,49.50
2023-03-04T04:15:41.141Z,46.87
2023-03-04T04:18:08.622Z,45.47
2023-03-04T04:20:36.036Z,52.47
2023-03-04T04:23:04.115Z,49.10
2023-03-04T04:25:31.256Z,50.30
2023-03-04T04:27:58.170Z,54.27
2023-03-04T04:30:25.503Z,52.77
2023-03-04T04:32:52.441Z,49.93
2023-03-04T04:35:19.661Z,46.27
2023-03-04T04:37:47.070Z,47.33
2023-03-04T04:40:14.217Z,49.30
2023-03-04T04:42:41.323Z,53.47
2023-03-04T04:45:09.127Z,55.23
2023-03-04T04:47:36.181Z,50.10
2023-03-04T04:50:04.025Z,54.73
2023-03-04T04:52:31.194Z,48.33
2023-03-04T04:54:58.336Z,48.97
2023-03-04T04:57:25.545Z,50.23
2023-03-04T04:59:52.509Z,47.93
2023-03-04T05:02:19.388Z,48.30
2023-03-04T05:04:46.604Z,46.97
2023-03-04T05:07:13.547Z,44.37
2023-03-04T05:09:40.447Z,43.33
2023-03-04T05:12:07.514Z,43.10
2023-03-04T05:14:34.460Z,51.40
2023-03-04T05:17:01.401Z,36.70
2023-03-04T05:19:28.410Z,42.37
2023-03-04T05:21:55.345Z,46.47
2023-03-04T05:24:22.335Z,44.03
2023-03-04T05:26:49.257Z,42.50
2023-03-04T05:29:16.129Z,48.30
2023-03-04T05:31:42.991Z,45.13
2023-03-04T05:34:09.873Z,42.37
2023-03-04T05:36:36.933Z,44.73
2023-03-04T05:39:03.986Z,43.63
2023-03-04T05:41:30.923Z,48.70
2023-03-04T05:43:57.888Z,42.83
2023-03-04T05:46:25.658Z,42.10
2023-03-04T05:48:54.505Z,50.20
2023-03-04T05:51:22.712Z,48.43
2023-03-04T05:53:49.969Z,47.00
2023-03-04T05:56:19.814Z,50.50
2023-03-04T05:58:50.299Z,51.17
2023-03-04T06:01:18.436Z,51.33
2023-03-04T06:03:45.396Z,48.50
2023-03-04T06:06:12.394Z,54.67
2023-03-04T06:08:39.519Z,58.60
2023-03-04T06:11:07.094Z,51.57
2023-03-04T06:13:34.770Z,50.40
2023-03-04T06:16:02.083Z,49.80
2023-03-04T06:18:29.493Z,50.60
2023-03-04T06:21:02.215Z,52.80
2023-03-04T06:23:30.856Z,56.00
2023-03-04T06:26:00.129Z,63.50
2023-03-04T06:28:28.208Z,53.70
2023-03-04T06:30:56.854Z,59.13
2023-03-04T06:33:24.400Z,58.40
2023-03-04T06:35:55.780Z,73.70
2023-03-04T06:38:24.034Z,53.33
2023-03-04T06:40:51.124Z,50.23
2023-03-04T06:43:18.720Z,54.20
2023-03-04T06:45:45.661Z,144.30
2023-03-04T06:48:13.138Z,519.83
2023-03-04T06:50:41.056Z,220.63
2023-03-04T06:53:07.955Z,74.20
2023-03-04T06:55:34.881Z,54.57
2023-03-04T06:58:01.889Z,85.70
2023-03-04T07:00:28.873Z,66.10
2023-03-04T07:02:55.792Z,62.10
2023-03-04T07:05:22.672Z,57.93
2023-03-04T07:07:50.544Z,51.40
2023-03-04T07:10:20.407Z,49.20
2023-03-04T07:12:47.660Z,54.80
2023-03-04T07:15:14.581Z,48.10
2023-03-04T07:17:41.602Z,52.57
2023-03-04T07:20:09.675Z,47.57
2023-03-04T07:22:36.924Z,45.90
2023-03-04T07:25:05.685Z,43.70
2023-03-04T07:27:32.553Z,49.47
2023-03-04T07:29:59.623Z,45.00
2023-03-04T07:32:26.973Z,52.77
2023-03-04T07:34:55.329Z,49.53
2023-03-04T07:37:22.458Z,46.67
2023-03-04T07:39:49.505Z,47.80
2023-03-04T07:42:16.541Z,46.83
2023-03-04T07:44:43.468Z,52.73
2023-03-04T07:47:10.391Z,53.60
2023-03-04T07:49:37.379Z,47.97
2023-03-04T07:52:06.027Z,49.87
2023-03-04T07:54:33.349Z,53.70
2023-03-04T07:57:00.374Z,49.90
2023-03-04T07:59:27.382Z,58.20
2023-03-04T08:01:54.341Z,51.10
2023-03-04T08:04:21.410Z,55.47
2023-03-04T08:06:48.934Z,57.33
2023-03-04T08:09:15.859Z,47.13
2023-03-04T08:11:42.866Z,47.80
2023-03-04T08:14:12.777Z,50.70
2023-03-04T08:16:40.513Z,51.73
2023-03-04T08:19:08.217Z,48.20
2023-03-04T08:21:35.862Z,45.63
2023-03-04T08:24:08.458Z,54.30
2023-03-04T08:26:44.573Z,53.33
2023-03-04T08:29:21.134Z,53.67
2023-03-04T08:31:51.435Z,50.60
2023-03-04T08:34:20.791Z,52.87
2023-03-04T08:36:48.322Z,52.57
2023-03-04T08:39:18.219Z,48.70
2023-03-04T08:41:46.540Z,49.13
2023-03-04T08:44:13.953Z,55.90
2023-03-04T08:46:44.267Z,50.67
2023-03-04T08:49:12.951Z,49.30
2023-03-04T08:51:39.926Z,54.93
2023-03-04T08:54:07.188Z,48.07
2023-03-04T08:56:34.136Z,50.67
2023-03-04T08:59:01.067Z,50.03
2023-03-04T09:01:28.271Z,50.63
2023-03-04T09:03:55.605Z,58.13
2023-03-04T09:06:22.562Z,48.93
2023-03-04T09:08:49.526Z,45.87
2023-03-04T09:11:17.031Z,51.80
2023-03-04T09:13:44.015Z,49.17
2023-03-04T09:16:15.489Z,47.47
2023-03-04T09:18:43.261Z,46.60
2023-03-04T09:21:10.781Z,45.53
2023-03-04T09:23:38.828Z,44.33
2023-03-04T09:26:26.531Z,49.03
2023-03-04T09:28:57.316Z,44.67
2023-03-04T09:31:26.599Z,50.27
2023-03-04T09:33:55.348Z,47.63
2023-03-04T09:36:22.694Z,49.20
2023-03-04T09:38:50.007Z,45.10
2023-03-04T09:41:35.208Z,46.73
2023-03-04T09:44:30.636Z,55.20
2023-03-04T09:47:02.410Z,49.60
2023-03-04T09:49:30.788Z,51.30
2023-03-04T09:52:34.980Z,48.17
2023-03-04T09:55:20.472Z,59.87
2023-03-04T09:58:21.556Z,48.47
2023-03-04T10:01:21.734Z,47.37
2023-03-04T10:03:59.120Z,46.67
2023-03-04T10:06:26.205Z,50.23
2023-03-04T10:09:16.870Z,52.63
2023-03-04T10:12:12.694Z,53.57
2023-03-04T10:14:51.939Z,49.17
2023-03-04T10:17:39.316Z,52.67
2023-03-04T10:20:31.614Z,52.13
2023-03-04T10:23:16.423Z,54.70
2023-03-04T10:25:53.778Z,48.30
2023-03-04T10:28:30.440Z,50.90
2023-03-04T10:31:22.340Z,49.37
2023-03-04T10:33:49.808Z,52.33
2023-03-04T10:36:38.742Z,52.23
2023-03-04T10:39:18.691Z,50.30
2023-03-04T10:42:04.692Z,59.00
2023-03-04T10:44:35.161Z,52.00
2023-03-04T10:47:03.254Z,44.80
2023-03-04T10:49:30.379Z,37.17
2023-03-04T10:52:19.718Z,39.30
2023-03-04T10:54:54.315Z,42.77
2023-03-04T10:57:35.146Z,35.13
2023-03-04T11:00:18.555Z,35.70
2023-03-04T11:02:47.574Z,38.27
2023-03-04T11:05:23.627Z,32.07
2023-03-04T11:07:57.558Z,41.00
2023-03-04T11:10:36.747Z,35.83
2023-03-04T11:13:18.786Z,29.43
2023-03-04T11:16:30.994Z,34.30
2023-03-04T11:19:12.415Z,32.33
2023-03-04T11:21:41.086Z,34.07
2023-03-04T11:24:29.109Z,39.00
2023-03-04T11:27:36.607Z,29.20
2023-03-04T11:30:31.741Z,32.93
2023-03-04T11:33:43.556Z,34.70
2023-03-04T11:36:41.001Z,36.50
2023-03-04T11:39:25.829Z,36.50
2023-03-04T11:42:03.332Z,33.27
2023-03-04T11:44:31.431Z,29.40
2023-03-04T11:47:19.412Z,34.43
2023-03-04T11:49:56.457Z,30.57
2023-03-04T11:53:00.465Z,34.77
2023-03-04T11:56:10.582Z,31.13
2023-03-04T11:59:01.688Z,34.07
2023-03-04T12:02:08.289Z,30.23
2023-03-04T12:04:56.243Z,34.83
2023-03-04T12:07:32.260Z,42.37
2023-03-04T12:10:30.300Z,40.80
2023-03-04T12:13:30.463Z,30.03
2023-03-04T12:16:21.523Z,30.50
2023-03-04T12:19:09.834Z,31.23
2023-03-04T12:22:09.214Z,25.80
2023-03-04T12:25:16.690Z,27.70
2023-03-04T12:28:08.749Z,22.57
2023-03-04T12:30:58.342Z,23.10
2023-03-04T12:33:34.251Z,24.40
2023-03-04T12:36:07.183Z,28.00
2023-03-04T12:39:00.126Z,32.23
2023-03-04T12:42:02.704Z,30.57
2023-03-04T12:44:37.002Z,37.07
2023-03-04T12:47:24.397Z,27.43
2023-03-04T12:50:22.286Z,29.80
2023-03-04T12:53:11.943Z,27.27
2023-03-04T12:55:43.514Z,29.03
2023-03-04T12:58:37.171Z,28.00
2023-03-04T13:01:15.914Z,33.13
2023-03-04T13:04:12.895Z,26.33
2023-03-04T13:07:15.847Z,25.50
2023-03-04T13:10:02.628Z,27.50
2023-03-04T13:12:56.013Z,26.20
2023-03-04T13:15:23.012Z,26.53
2023-03-04T13:18:28.771Z,25.87
2023-03-04T13:21:30.026Z,24.40
2023-03-04T13:23:58.159Z,25.70
2023-03-04T13:26:35.187Z,32.77
2023-03-04T13:29:14.195Z,22.40
2023-03-04T13:32:11.503Z,23.10
2023-03-04T13:34:51.830Z,27.03
2023-03-04T13:37:31.169Z,28.00
2023-03-04T13:40:34.210Z,25.43
2023-03-04T13:43:52.622Z,22.83
2023-03-04T13:46:19.531Z,22.27
2023-03-04T13:48:52.658Z,21.60
2023-03-04T13:51:45.015Z,24.17
2023-03-04T13:54:32.628Z,20.20
2023-03-04T13:57:18.509Z,24.13
2023-03-04T13:59:49.813Z,21.43
2023-03-04T14:02:22.766Z,20.73
2023-03-04T14:05:02.014Z,19.30
2023-03-04T14:07:36.535Z,23.87
2023-03-04T14:10:20.737Z,18.37
2023-03-04T14:12:56.870Z,25.93
2023-03-04T14:15:30.089Z,23.07
2023-03-04T14:17:59.933Z,19.20
2023-03-04T14:20:32.725Z,23.50
2023-03-04T14:23:23.149Z,22.17
2023-03-04T14:25:50.345Z,19.43
2023-03-04T14:28:20.589Z,17.53
2023-03-04T14:30:56.712Z,25.67
2023-03-04T14:33:27.979Z,16.47
2023-03-04T14:35:59.852Z,17.70
2023-03-04T14:38:41.597Z,32.23
2023-03-04T14:41:23.570Z,25.30
2023-03-04T14:44:09.320Z,19.97
2023-03-04T14:47:06.560Z,22.40
2023-03-04T14:49:37.070Z,28.97
2023-03-04T14:52:04.823Z,18.57
2023-03-04T14:54:37.703Z,19.80
2023-03-04T14:57:34.889Z,28.80
2023-03-04T15:00:21.583Z,23.03
2023-03-04T15:02:58.764Z,21.70
2023-03-04T15:05:30.027Z,21.83
2023-03-04T15:08:07.186Z,20.00
2023-03-04T15:10:38.031Z,25.20
2023-03-04T15:13:08.863Z,27.37
2023-03-04T15:15:46.771Z,28.40
2023-03-04T15:18:23.397Z,32.60
2023-03-04T15:21:03.272Z,22.87
2023-03-04T15:23:33.594Z,27.40
2023-03-04T15:26:04.262Z,29.27
2023-03-04T15:28:37.847Z,30.10
2023-03-04T15:31:06.406Z,33.57
2023-03-04T15:33:34.086Z,35.20
2023-03-04T15:36:03.149Z,38.43
2023-03-04T15:38:30.474Z,34.90
2023-03-04T15:40:59.578Z,29.77
2023-03-04T15:43:27.028Z,29.40
2023-03-04T15:45:54.218Z,33.50
2023-03-04T15:48:21.611Z,33.30
2023-03-04T15:50:52.542Z,37.53
2023-03-04T15:53:40.902Z,32.73
2023-03-04T15:56:17.597Z,31.70
2023-03-04T15:58:47.624Z,38.20
2023-03-04T16:01:17.287Z,33.57
2023-03-04T16:03:44.338Z,33.73
2023-03-04T16:06:14.872Z,32.90
2023-03-04T16:08:42.794Z,30.33
2023-03-04T16:11:21.258Z,40.83
2023-03-04T16:13:48.586Z,32.97
2023-03-04T16:16:15.915Z,31.67
2023-03-04T16:18:43.752Z,34.80
2023-03-04T16:21:16.337Z,27.93
2023-03-04T16:23:47.396Z,28.77
2023-03-04T16:26:28.384Z,28.10
2023-03-04T16:28:55.309Z,27.73
2023-03-04T16:31:23.068Z,36.00
2023-03-04T16:33:51.244Z,33.30
2023-03-04T16:36:27.365Z,31.93
2023-03-04T16:39:02.708Z,27.23
2023-03-04T16:41:33.165Z,29.17
2023-03-04T16:44:01.129Z,31.60
2023-03-04T16:46:29.948Z,37.37
2023-03-04T16:48:56.926Z,37.80
2023-03-04T16:51:24.108Z,33.33
2023-03-04T16:54:00.048Z,32.23
2023-03-04T16:56:27.609Z,42.23
2023-03-04T16:58:54.700Z,35.70
2023-03-04T17:01:28.871Z,31.33
2023-03-04T17:03:56.881Z,31.77
2023-03-04T17:06:24.474Z,35.33
2023-03-04T17:08:51.729Z,35.60
2023-03-04T17:11:23.473Z,31.87
2023-03-04T17:13:51.502Z,30.93
2023-03-04T17:16:18.822Z,35.07
2023-03-04T17:18:46.275Z,31.13
2023-03-04T17:21:20.641Z,37.10
2023-03-04T17:23:47.892Z,35.53
2023-03-04T17:26:15.970Z,41.50
2023-03-04T17:28:43.217Z,33.87
2023-03-04T17:31:17.078Z,31.73
2023-03-04T17:33:45.124Z,31.97
2023-03-04T17:36:14.223Z,35.87
2023-03-04T17:38:41.827Z,25.90
2023-03-04T17:41:17.540Z,36.57
2023-03-04T17:43:47.244Z,40.63
2023-03-04T17:46:17.020Z,33.53
2023-03-04T17:48:44.362Z,36.20
2023-03-04T17:51:12.258Z,31.63
2023-03-04T17:53:39.927Z,36.17
2023-03-04T17:56:09.172Z,31.80
2023-03-04T17:58:37.219Z,35.43
2023-03-04T18:01:17.614Z,27.33
2023-03-04T18:03:45.129Z,37.40
2023-03-04T18:06:12.642Z,29.47
2023-03-04T18:08:39.558Z,32.93
2023-03-04T18:11:06.604Z,32.33
2023-03-04T18:13:33.491Z,34.57
2023-03-04T18:16:00.466Z,31.63
2023-03-04T18:18:27.541Z,30.70
2023-03-04T18:21:01.419Z,28.77
2023-03-04T18:23:29.091Z,26.43
2023-03-04T18:25:56.217Z,30.90
2023-03-04T18:28:23.551Z,34.60
2023-03-04T18:30:54.503Z,33.43
2023-03-04T18:33:21.972Z,33.00
2023-03-04T18:35:49.031Z,24.67
2023-03-04T18:38:16.468Z,27.63
2023-03-04T18:40:44.242Z,35.83
2023-03-04T18:43:11.367Z,28.67
2023-03-04T18:45:38.329Z,27.97
2023-03-04T18:48:05.743Z,35.13
2023-03-04T18:50:32.842Z,30.07
2023-03-04T18:52:59.849Z,28.77
2023-03-04T18:55:26.852Z,28.30
2023-03-04T18:57:58.012Z,32.47
2023-03-04T19:00:25.769Z,24.27
2023-03-04T19:03:01.848Z,29.40
2023-03-04T19:05:32.514Z,27.73
2023-03-04T19:08:00.031Z,27.50
2023-03-04T19:10:27.310Z,26.87
2023-03-04T19:12:54.285Z,26.63
2023-03-04T19:15:21.265Z,28.40
2023-03-04T19:17:48.380Z,26.73
2023-03-04T19:20:16.660Z,26.60
2023-03-04T19:22:44.449Z,31.67
2023-03-04T19:25:11.945Z,27.37
2023-03-04T19:27:39.004Z,29.40
2023-03-04T19:30:07.596Z,30.70
2023-03-04T19:32:34.571Z,25.93
2023-03-04T19:35:01.871Z,27.93
2023-03-04T19:37:28.894Z,29.43
2023-03-04T19:39:56.060Z,26.93
2023-03-04T19:42:24.217Z,27.33
2023-03-04T19:44:51.543Z,29.20
2023-03-04T19:47:18.540Z,27.63
2023-03-04T19:49:45.683Z,26.90
2023-03-04T19:52:12.612Z,30.17
2023-03-04T19:54:39.832Z,22.83
2023-03-04T19:57:06.856Z,28.23
2023-03-04T19:59:35.243Z,27.90
2023-03-04T20:02:02.909Z,25.43
2023-03-04T20:04:29.971Z,20.40
2023-03-04T20:06:56.986Z,24.63
2023-03-04T20:09:23.916Z,25.70
2023-03-04T20:11:58.134Z,25.60
2023-03-04T20:14:27.393Z,27.17
2023-03-04T20:16:58.710Z,32.40
2023-03-04T20:19:25.690Z,28.27
2023-03-04T20:21:52.649Z,26.37
2023-03-04T20:24:20.041Z,31.33
2023-03-04T20:26:46.909Z,24.20
2023-03-04T20:29:13.787Z,25.63
2023-03-04T20:31:41.076Z,30.30
2023-03-04T20:34:08.740Z,29.43
2023-03-04T20:36:36.144Z,28.33
2023-03-04T20:39:08.289Z,28.77
2023-03-04T20:41:42.321Z,24.03
2023-03-04T20:44:09.284Z,25.53
2023-03-04T20:46:46.118Z,35.93
2023-03-04T20:49:26.954Z,30.33
2023-03-04T20:52:06.163Z,25.70
2023-03-04T20:54:38.497Z,37.83
2023-03-04T20:57:10.638Z,26.30
2023-03-04T20:59:39.456Z,35.27
2023-03-04T21:02:10.995Z,35.00
2023-03-04T21:04:38.005Z,31.27
2023-03-04T21:07:04.938Z,26.07
2023-03-04T21:09:31.934Z,26.33
2023-03-04T21:12:00.818Z,29.07
2023-03-04T21:14:32.364Z,29.43
2023-03-04T21:17:02.989Z,28.47
2023-03-04T21:19:36.142Z,31.33
2023-03-04T21:22:04.074Z,32.60
2023-03-04T21:24:34.397Z,22.80
2023-03-04T21:27:01.824Z,35.37
2023-03-04T21:29:28.814Z,29.27
2023-03-04T21:32:16.899Z,30.20
2023-03-04T21:34:51.788Z,31.43
2023-03-04T21:37:23.888Z,27.87
2023-03-04T21:39:51.174Z,36.17
2023-03-04T21:42:18.493Z,41.73
2023-03-04T21:44:49.080Z,32.10
2023-03-04T21:47:17.714Z,29.80
2023-03-04T21:49:44.724Z,32.67
2023-03-04T21:52:13.019Z,27.30
2023-03-04T21:54:39.966Z,45.07
2023-03-04T21:57:06.938Z,36.60
2023-03-04T21:59:34.006Z,28.30
2023-03-04T22:02:02.223Z,29.80
2023-03-04T22:04:29.229Z,32.47
2023-03-04T22:06:56.162Z,34.30
2023-03-04T22:09:23.106Z,35.30
2023-03-04T22:11:50.138Z,32.33
2023-03-04T22:14:17.102Z,31.33
2023-03-04T22:16:59.285Z,30.20
2023-03-04T22:19:30.928Z,40.60
2023-03-04T22:21:59.135Z,35.77
2023-03-04T22:24:26.362Z,30.53
2023-03-04T22:26:56.764Z,32.03
2023-03-04T22:29:23.705Z,38.10
2023-03-04T22:31:50.616Z,36.47
2023-03-04T22:34:18.767Z,32.80
2023-03-04T22:36:47.208Z,38.47
2023-03-04T22:39:20.764Z,35.50
2023-03-04T22:41:48.132Z,31.67
2023-03-04T22:44:15.217Z,46.17
2023-03-04T22:46:42.747Z,41.57
2023-03-04T22:49:12.365Z,41.40
2023-03-04T22:51:44.391Z,47.93
2023-03-04T22:54:17.043Z,33.67
2023-03-04T22:56:44.893Z,35.03
2023-03-04T22:59:12.150Z,32.60
2023-03-04T23:01:39.134Z,42.07
2023-03-04T23:04:06.034Z,42.50
2023-03-04T23:06:33.254Z,54.20
2023-03-04T23:09:00.648Z,48.10
2023-03-04T23:11:35.356Z,44.67
2023-03-04T23:14:06.338Z,34.53
2023-03-04T23:16:39.110Z,34.00
2023-03-04T23:19:07.187Z,33.63
2023-03-04T23:21:35.577Z,35.47
2023-03-04T23:24:04.024Z,36.93
2023-03-04T23:26:38.882Z,46.03
2023-03-04T23:29:11.399Z,35.47
2023-03-04T23:31:38.536Z,35.13
2023-03-04T23:34:06.926Z,30.97
2023-03-04T23:36:37.043Z,29.17
2023-03-04T23:39:06.393Z,33.10
2023-03-04T23:41:35.059Z,32.43
2023-03-04T23:44:02.886Z,34.77
2023-03-04T23:46:30.055Z,30.10
2023-03-04T23:48:57.683Z,30.70
2023-03-04T23:51:28.418Z,29.20
2023-03-04T23:53:56.428Z,30.80
2023-03-04T23:56:30.252Z,28.77
2023-03-04T23:58:58.648Z,36.23
